createdAt,value
2023-04-28T00:01:50.984Z,98992.34
2023-04-28T00:04:18.258Z,98995.91
2023-04-28T00:06:45.576Z,98989.56
2023-04-28T00:09:13.359Z,98987.06
2023-04-28T00:11:39.851Z,98985.63
2023-04-28T00:14:06.648Z,98988.72
2023-04-28T00:16:33.710Z,98981.66
2023-04-28T00:19:00.356Z,98985.13
2023-04-28T00:21:26.829Z,98985.13
2023-04-28T00:23:53.474Z,98980.47
2023-04-28T00:26:20.105Z,98975.31
2023-04-28T00:28:46.740Z,98968.72
2023-04-28T00:31:13.873Z,98959.28
2023-04-28T00:33:40.992Z,98963.22
2023-04-28T00:36:07.866Z,98959.03
2023-04-28T00:38:34.232Z,98957.34
2023-04-28T00:41:00.867Z,98958.78
2023-04-28T00:43:27.420Z,98953.78
2023-04-28T00:45:54.072Z,98951.38
2023-04-28T00:48:20.652Z,98956.16
2023-04-28T00:50:48.050Z,98943.00
2023-04-28T00:53:14.614Z,98940.50
2023-04-28T00:55:41.193Z,98933.88
2023-04-28T00:58:08.081Z,98947.78
2023-04-28T01:00:35.074Z,98948.03
2023-04-28T01:03:02.665Z,98944.16
2023-04-28T01:05:30.762Z,98950.19
2023-04-28T01:07:57.287Z,98947.31
2023-04-28T01:10:23.700Z,98953.03
2023-04-28T01:12:50.501Z,98945.84
2023-04-28T01:15:18.320Z,98932.47
2023-04-28T01:17:45.986Z,98931.28
2023-04-28T01:20:12.580Z,98933.88
2023-04-28T01:22:39.026Z,98933.63
2023-04-28T01:25:05.745Z,98928.34
2023-04-28T01:27:32.180Z,98924.53
2023-04-28T01:30:03.289Z,98926.94
2023-04-28T01:32:29.835Z,98925.97
2023-04-28T01:34:56.609Z,98914.47
2023-04-28T01:37:23.230Z,98906.72
2023-04-28T01:39:49.708Z,98895.34
2023-04-28T01:42:16.224Z,98900.66
2023-04-28T01:44:42.659Z,98884.97
2023-04-28T01:47:09.474Z,98882.25
2023-04-28T01:49:36.197Z,98877.91
2023-04-28T01:52:02.732Z,98885.19
2023-04-28T01:54:29.363Z,98880.88
2023-04-28T01:56:55.887Z,98880.28
2023-04-28T01:59:22.485Z,98881.03
2023-04-28T02:01:49.083Z,98874.81
2023-04-28T02:04:15.787Z,98871.16
2023-04-28T02:06:42.703Z,98864.06
2023-04-28T02:09:13.810Z,98852.72
2023-04-28T02:11:40.359Z,98854.72
2023-04-28T02:14:07.410Z,98851.34
2023-04-28T02:16:34.214Z,98846.09
2023-04-28T02:19:00.794Z,98850.44
2023-04-28T02:21:28.126Z,98847.56
2023-04-28T02:23:54.737Z,98849.38
2023-04-28T02:26:21.214Z,98852.53
2023-04-28T02:28:49.072Z,98849.03
2023-04-28T02:31:16.125Z,98838.25
2023-04-28T02:33:42.918Z,98833.56
2023-04-28T02:36:20.844Z,98821.50
2023-04-28T02:38:47.708Z,98835.03
2023-04-28T02:41:15.485Z,98834.34
2023-04-28T02:43:42.317Z,98832.78
2023-04-28T02:46:08.803Z,98821.44
2023-04-28T02:48:36.746Z,98824.34
2023-04-28T02:51:03.783Z,98824.69
2023-04-28T02:53:30.244Z,98826.94
2023-04-28T02:55:57.064Z,98826.53
2023-04-28T02:58:23.550Z,98818.59
2023-04-28T03:00:50.279Z,98818.59
2023-04-28T03:03:16.972Z,98808.56
2023-04-28T03:05:43.560Z,98801.06
2023-04-28T03:08:10.017Z,98796.19
2023-04-28T03:10:36.704Z,98789.19
2023-04-28T03:13:03.369Z,98794.16
2023-04-28T03:15:29.790Z,98785.88
2023-04-28T03:17:56.447Z,98783.84
2023-04-28T03:20:23.014Z,98774.41
2023-04-28T03:22:49.461Z,98770.56
2023-04-28T03:25:15.954Z,98776.91
2023-04-28T03:27:43.704Z,98768.41
2023-04-28T03:30:10.530Z,98768.94
2023-04-28T03:32:37.130Z,98767.97
2023-04-28T03:35:03.704Z,98771.28
2023-04-28T03:37:30.109Z,98760.19
2023-04-28T03:39:57.128Z,98752.47
2023-04-28T03:42:23.595Z,98749.31
2023-04-28T03:44:50.059Z,98727.97
2023-04-28T03:47:16.652Z,98728.69
2023-04-28T03:49:43.100Z,98724.72
2023-04-28T03:52:09.722Z,98716.59
2023-04-28T03:54:36.260Z,98716.34
2023-04-28T03:57:02.811Z,98713.53
2023-04-28T03:59:29.178Z,98701.63
2023-04-28T04:01:55.641Z,98698.47
2023-04-28T04:04:22.720Z,98693.72
2023-04-28T04:06:50.639Z,98674.16
2023-04-28T04:09:17.331Z,98668.41
2023-04-28T04:11:43.796Z,98658.56
2023-04-28T04:14:10.653Z,98645.16
2023-04-28T04:16:37.549Z,98641.13
2023-04-28T04:19:03.980Z,98635.78
2023-04-28T04:21:32.123Z,98636.25
2023-04-28T04:23:58.745Z,98630.00
2023-04-28T04:26:25.379Z,98617.94
2023-04-28T04:28:51.940Z,98621.44
2023-04-28T04:31:19.850Z,98623.66
2023-04-28T04:33:46.412Z,98623.53
2023-04-28T04:36:13.237Z,98592.78
2023-04-28T04:38:40.337Z,98633.09
2023-04-28T04:41:07.092Z,98629.31
2023-04-28T04:43:33.516Z,98624.50
2023-04-28T04:46:00.557Z,98618.44
2023-04-28T04:48:27.645Z,98598.06
2023-04-28T04:50:54.263Z,98609.97
2023-04-28T04:53:20.911Z,98595.13
2023-04-28T04:55:47.713Z,98574.91
2023-04-28T04:58:14.277Z,98562.72
2023-04-28T05:00:40.806Z,98537.72
2023-04-28T05:03:08.014Z,98576.28
2023-04-28T05:05:34.772Z,98543.84
2023-04-28T05:08:02.576Z,98533.56
2023-04-28T05:10:29.475Z,98515.91
2023-04-28T05:12:56.157Z,98497.31
2023-04-28T05:15:22.886Z,98476.41
2023-04-28T05:17:49.722Z,98466.34
2023-04-28T05:20:16.583Z,98482.75
2023-04-28T05:22:43.233Z,98461.19
2023-04-28T05:25:10.000Z,98437.16
2023-04-28T05:27:42.045Z,98405.06
2023-04-28T05:30:09.494Z,98384.34
2023-04-28T05:32:36.734Z,98401.47
2023-04-28T05:35:03.381Z,98373.09
2023-04-28T05:37:30.213Z,98360.03
2023-04-28T05:39:56.810Z,98325.56
2023-04-28T05:42:23.224Z,98310.41
2023-04-28T05:44:49.688Z,98294.41
2023-04-28T05:47:16.190Z,98251.34
2023-04-28T05:49:42.581Z,98189.91
2023-04-28T05:52:09.096Z,98108.38
2023-04-28T05:54:40.464Z,98110.06
2023-04-28T05:57:07.383Z,98068.97
2023-04-28T05:59:34.076Z,98050.13
2023-04-28T06:02:00.626Z,98007.69
2023-04-28T06:04:27.665Z,98017.16
2023-04-28T06:06:54.435Z,97980.16
2023-04-28T06:09:21.146Z,97991.59
2023-04-28T06:11:47.738Z,97949.09
2023-04-28T06:14:14.464Z,97900.56
2023-04-28T06:16:41.022Z,97871.84
2023-04-28T06:19:16.673Z,97805.50
2023-04-28T06:21:53.852Z,97739.84
2023-04-28T06:24:21.496Z,97681.94
2023-04-28T06:26:48.011Z,97644.13
2023-04-28T06:29:14.663Z,97660.88
2023-04-28T06:31:43.378Z,97616.50
2023-04-28T06:34:14.863Z,97600.03
2023-04-28T06:36:47.807Z,97561.38
2023-04-28T06:39:14.389Z,97560.59
2023-04-28T06:41:41.802Z,97562.16
2023-04-28T06:44:08.316Z,97583.47
2023-04-28T06:46:34.950Z,97575.84
2023-04-28T06:49:01.634Z,97581.72
2023-04-28T06:51:29.027Z,97561.06
2023-04-28T06:53:55.569Z,97547.78
2023-04-28T06:56:22.337Z,97535.81
2023-04-28T06:58:49.120Z,97535.19
2023-04-28T07:01:18.173Z,97523.38
2023-04-28T07:03:44.941Z,97508.72
2023-04-28T07:06:11.670Z,97529.50
2023-04-28T07:08:38.208Z,97455.91
2023-04-28T07:11:04.939Z,97408.25
2023-04-28T07:13:32.360Z,97432.72
2023-04-28T07:15:59.928Z,97413.88
2023-04-28T07:18:26.486Z,97424.06
2023-04-28T07:20:53.166Z,97415.16
2023-04-28T07:23:19.639Z,97372.38
2023-04-28T07:25:46.167Z,97299.97
2023-04-28T07:28:13.217Z,97308.53
2023-04-28T07:30:39.754Z,97313.47
2023-04-28T07:33:06.663Z,97305.88
2023-04-28T07:35:33.381Z,97257.84
2023-04-28T07:37:59.986Z,97214.41
2023-04-28T07:40:26.519Z,97172.44
2023-04-28T07:43:01.297Z,97131.34
2023-04-28T07:45:27.963Z,97045.19
2023-04-28T07:47:54.562Z,96938.16
2023-04-28T07:50:21.321Z,96829.44
2023-04-28T07:52:47.835Z,96760.19
2023-04-28T07:55:14.633Z,96691.63
2023-04-28T07:57:42.448Z,96640.75
2023-04-28T08:00:10.075Z,96622.75
2023-04-28T08:02:36.846Z,96590.84
2023-04-28T08:05:03.772Z,96603.88
2023-04-28T08:07:30.622Z,96613.03
2023-04-28T08:10:07.533Z,96617.41
2023-04-28T08:12:34.365Z,96811.41
2023-04-28T08:15:01.061Z,96802.28
2023-04-28T08:17:27.827Z,96802.56
2023-04-28T08:19:54.698Z,96794.19
2023-04-28T08:22:21.397Z,96804.63
2023-04-28T08:24:47.997Z,96812.69
2023-04-28T08:27:14.540Z,96821.34
2023-04-28T08:29:41.130Z,96820.66
2023-04-28T08:32:07.791Z,96806.47
2023-04-28T08:34:35.282Z,96811.66
2023-04-28T08:37:05.104Z,96811.59
2023-04-28T08:39:34.249Z,96811.59
2023-04-28T08:42:04.834Z,96790.22
2023-04-28T08:44:41.273Z,96798.41
2023-04-28T08:47:14.716Z,96769.94
2023-04-28T08:49:41.657Z,96833.75
2023-04-28T08:52:13.858Z,96834.63
2023-04-28T08:54:41.814Z,96834.94
2023-04-28T08:57:11.685Z,96836.00
2023-04-28T08:59:41.710Z,96836.00
2023-04-28T09:02:09.194Z,96820.59
2023-04-28T09:04:38.279Z,96812.22
2023-04-28T09:07:15.235Z,96808.28
2023-04-28T09:09:42.250Z,96816.94
2023-04-28T09:12:09.289Z,96825.41
2023-04-28T09:14:36.652Z,96833.31
2023-04-28T09:17:03.560Z,96833.13
2023-04-28T09:19:34.464Z,96832.59
2023-04-28T09:22:05.568Z,96819.13
2023-04-28T09:24:47.081Z,96809.91
2023-04-28T09:27:15.636Z,96816.19
2023-04-28T09:29:52.577Z,96814.56
2023-04-28T09:32:20.285Z,96816.59
2023-04-28T09:34:47.821Z,96817.81
2023-04-28T09:37:15.543Z,96819.47
2023-04-28T09:39:42.113Z,96833.88
2023-04-28T09:42:08.552Z,96840.75
2023-04-28T09:44:34.926Z,96823.56
2023-04-28T09:47:19.773Z,96824.66
2023-04-28T09:49:56.085Z,96815.19
2023-04-28T09:52:26.240Z,96814.28
2023-04-28T09:54:54.027Z,96814.34
2023-04-28T09:57:22.238Z,96832.03
2023-04-28T09:59:49.820Z,96821.72
2023-04-28T10:02:40.838Z,96829.53
2023-04-28T10:05:05.458Z,96812.94
2023-04-28T10:07:35.011Z,96824.22
2023-04-28T10:10:02.049Z,96822.94
2023-04-28T10:12:28.584Z,96819.34
2023-04-28T10:14:55.157Z,96823.75
2023-04-28T10:17:22.205Z,96808.44
2023-04-28T10:19:50.432Z,96809.59
2023-04-28T10:22:30.889Z,96804.03
2023-04-28T10:24:57.299Z,96807.53
2023-04-28T10:27:29.210Z,96806.97
2023-04-28T10:30:22.843Z,96819.97
2023-04-28T10:33:11.534Z,96817.75
2023-04-28T10:35:43.145Z,96790.38
2023-04-28T10:38:12.611Z,96790.50
2023-04-28T10:40:39.332Z,96794.53
2023-04-28T10:43:06.449Z,96767.28
2023-04-28T10:45:55.286Z,96772.81
2023-04-28T10:48:42.805Z,96770.53
2023-04-28T10:51:15.556Z,96771.66
2023-04-28T10:53:47.834Z,96782.34
2023-04-28T10:56:18.662Z,96762.31
2023-04-28T10:58:49.418Z,96719.13
2023-04-28T11:01:18.950Z,96728.19
2023-04-28T11:03:52.069Z,96687.06
2023-04-28T11:06:23.580Z,96718.59
2023-04-28T11:08:50.021Z,96705.31
2023-04-28T11:11:20.357Z,96681.22
2023-04-28T11:13:47.614Z,96700.91
2023-04-28T11:16:14.679Z,96708.50
2023-04-28T11:18:59.019Z,96685.88
2023-04-28T11:21:28.171Z,96708.78
2023-04-28T11:23:55.143Z,96713.34
2023-04-28T11:26:23.680Z,96690.06
2023-04-28T11:28:51.336Z,96704.75
2023-04-28T11:31:23.605Z,96708.25
2023-04-28T11:33:53.571Z,96703.16
2023-04-28T11:36:28.053Z,96750.72
2023-04-28T11:38:56.360Z,96746.66
2023-04-28T11:41:23.175Z,96734.50
2023-04-28T11:43:49.656Z,96750.72
2023-04-28T11:46:20.055Z,96740.19
2023-04-28T11:48:46.791Z,96726.22
2023-04-28T11:51:36.631Z,96738.63
2023-04-28T11:54:03.727Z,96731.28
2023-04-28T11:56:30.253Z,96690.91
2023-04-28T11:59:05.859Z,96698.41
2023-04-28T12:01:33.144Z,96739.41
2023-04-28T12:04:00.041Z,96761.09
2023-04-28T12:06:26.720Z,96755.06
2023-04-28T12:08:53.212Z,96753.09
2023-04-28T12:11:22.812Z,96760.38
2023-04-28T12:14:10.516Z,96763.91
2023-04-28T12:16:39.264Z,96808.56
2023-04-28T12:19:09.995Z,96796.81
2023-04-28T12:21:38.506Z,96804.56
2023-04-28T12:24:21.325Z,96822.88
2023-04-28T12:26:48.617Z,96811.75
2023-04-28T12:29:34.550Z,96808.31
2023-04-28T12:32:01.081Z,96796.00
2023-04-28T12:34:29.518Z,96807.91
2023-04-28T12:36:56.279Z,96815.50
2023-04-28T12:39:23.150Z,96810.56
2023-04-28T12:41:49.644Z,96805.06
2023-04-28T12:44:17.522Z,96791.78
2023-04-28T12:46:44.088Z,96778.19
2023-04-28T12:49:10.819Z,96759.94
2023-04-28T12:51:39.770Z,96767.22
2023-04-28T12:54:06.926Z,96763.16
2023-04-28T12:56:33.927Z,96760.84
2023-04-28T12:59:04.650Z,96790.53
2023-04-28T13:01:31.217Z,96759.03
2023-04-28T13:03:57.800Z,96800.63
2023-04-28T13:06:24.301Z,96835.94
2023-04-28T13:08:50.751Z,96912.78
2023-04-28T13:11:22.955Z,96857.00
2023-04-28T13:13:49.706Z,96850.09
2023-04-28T13:16:16.167Z,96845.63
2023-04-28T13:18:42.624Z,96865.03
2023-04-28T13:21:09.121Z,96870.69
2023-04-28T13:23:35.575Z,96879.09
2023-04-28T13:26:02.182Z,96875.16
2023-04-28T13:28:29.363Z,96901.06
2023-04-28T13:30:56.026Z,96867.50
2023-04-28T13:33:22.443Z,96859.53
2023-04-28T13:35:48.965Z,96859.91
2023-04-28T13:38:15.811Z,96835.34
2023-04-28T13:40:43.129Z,96837.19
2023-04-28T13:43:09.590Z,96817.41
2023-04-28T13:45:36.273Z,96812.63
2023-04-28T13:48:04.077Z,96818.88
2023-04-28T13:50:30.511Z,96823.16
2023-04-28T13:52:57.028Z,96825.56
2023-04-28T13:55:27.765Z,96824.19
2023-04-28T13:57:54.760Z,96827.31
2023-04-28T14:00:21.377Z,96822.59
2023-04-28T14:02:49.641Z,96830.59
2023-04-28T14:05:19.220Z,96818.88
2023-04-28T14:07:46.044Z,96819.47
2023-04-28T14:10:12.687Z,96809.97
2023-04-28T14:12:39.442Z,96806.00
2023-04-28T14:15:06.985Z,96794.94
2023-04-28T14:17:34.744Z,96799.41
2023-04-28T14:20:01.983Z,96817.47
2023-04-28T14:22:28.845Z,96806.16
2023-04-28T14:24:55.489Z,96803.56
2023-04-28T14:27:22.132Z,96802.16
2023-04-28T14:29:49.186Z,96817.59
2023-04-28T14:32:16.848Z,96808.31
2023-04-28T14:34:43.520Z,96805.19
2023-04-28T14:37:10.662Z,96783.09
2023-04-28T14:39:37.588Z,96782.50
2023-04-28T14:42:04.138Z,96760.00
2023-04-28T14:44:30.562Z,96757.63
2023-04-28T14:46:57.028Z,96769.09
2023-04-28T14:49:23.908Z,96764.78
2023-04-28T14:51:50.521Z,96755.66
2023-04-28T14:54:17.270Z,96752.84
2023-04-28T14:56:44.664Z,96746.53
2023-04-28T14:59:11.800Z,96730.00
2023-04-28T15:01:38.427Z,96752.19
2023-04-28T15:04:05.286Z,96742.72
2023-04-28T15:06:33.016Z,96738.56
2023-04-28T15:08:59.486Z,96740.75
2023-04-28T15:11:25.932Z,96738.03
2023-04-28T15:13:52.407Z,96728.03
2023-04-28T15:16:19.084Z,96735.44
2023-04-28T15:18:46.145Z,96733.06
2023-04-28T15:21:12.671Z,96710.53
2023-04-28T15:23:39.024Z,96734.22
2023-04-28T15:26:05.459Z,96735.75
2023-04-28T15:28:31.975Z,96732.22
2023-04-28T15:30:58.364Z,96737.84
2023-04-28T15:33:24.788Z,96749.94
2023-04-28T15:35:51.344Z,96747.41
2023-04-28T15:38:21.413Z,96735.59
2023-04-28T15:40:47.880Z,96719.38
2023-04-28T15:43:14.339Z,96728.31
2023-04-28T15:45:40.888Z,96735.47
2023-04-28T15:48:07.766Z,96733.03
2023-04-28T15:50:35.972Z,96740.59
2023-04-28T15:53:02.482Z,96735.78
2023-04-28T15:55:28.947Z,96738.88
2023-04-28T15:57:56.066Z,96734.66
2023-04-28T16:00:22.901Z,96728.59
2023-04-28T16:02:49.974Z,96719.38
2023-04-28T16:05:16.684Z,96721.25
2023-04-28T16:07:44.417Z,96725.66
2023-04-28T16:10:12.295Z,96711.22
2023-04-28T16:12:39.390Z,96695.50
2023-04-28T16:15:06.364Z,96707.25
2023-04-28T16:17:35.839Z,96682.13
2023-04-28T16:20:04.695Z,96699.69
2023-04-28T16:22:31.126Z,96702.44
2023-04-28T16:24:57.834Z,96698.00
2023-04-28T16:27:24.309Z,96696.88
2023-04-28T16:29:51.058Z,96702.94
2023-04-28T16:32:17.671Z,96692.06
2023-04-28T16:34:44.344Z,96686.78
2023-04-28T16:37:11.791Z,96688.38
2023-04-28T16:39:38.484Z,96662.44
2023-04-28T16:42:05.504Z,96677.53
2023-04-28T16:44:32.985Z,96659.53
2023-04-28T16:46:59.824Z,96670.88
2023-04-28T16:49:26.368Z,96664.97
2023-04-28T16:52:00.346Z,96646.31
2023-04-28T16:54:28.268Z,96633.81
2023-04-28T16:56:55.218Z,96631.00
2023-04-28T16:59:21.724Z,96619.84
2023-04-28T17:01:48.348Z,96619.56
2023-04-28T17:04:15.087Z,96617.97
2023-04-28T17:06:41.608Z,96627.19
2023-04-28T17:09:08.270Z,96633.72
2023-04-28T17:11:37.677Z,96632.56
2023-04-28T17:14:04.805Z,96639.16
2023-04-28T17:16:32.304Z,96630.34
2023-04-28T17:18:59.319Z,96622.75
2023-04-28T17:21:28.584Z,96622.28
2023-04-28T17:23:58.531Z,96608.19
2023-04-28T17:26:25.420Z,96601.25
2023-04-28T17:28:52.337Z,96603.84
2023-04-28T17:31:19.446Z,96612.88
2023-04-28T17:33:46.540Z,96618.59
2023-04-28T17:36:13.033Z,96623.91
2023-04-28T17:38:39.693Z,96619.63
2023-04-28T17:41:06.287Z,96617.44
2023-04-28T17:43:33.859Z,96613.00
2023-04-28T17:46:00.553Z,96601.31
2023-04-28T17:48:27.019Z,96602.41
2023-04-28T17:50:53.820Z,96593.03
2023-04-28T17:53:20.214Z,96602.34
2023-04-28T17:55:46.668Z,96593.31
2023-04-28T17:58:13.158Z,96584.59
2023-04-28T18:00:39.764Z,96582.53
2023-04-28T18:03:06.637Z,96577.28
2023-04-28T18:05:35.397Z,96570.34
2023-04-28T18:08:05.524Z,96574.91
2023-04-28T18:10:32.301Z,96567.16
2023-04-28T18:12:59.267Z,96549.59
2023-04-28T18:15:26.153Z,96551.63
2023-04-28T18:17:53.828Z,96537.41
2023-04-28T18:20:20.346Z,96514.66
2023-04-28T18:22:47.210Z,96526.84
2023-04-28T18:25:16.754Z,96513.16
2023-04-28T18:27:43.359Z,96511.19
2023-04-28T18:30:09.996Z,96504.06
2023-04-28T18:32:36.490Z,96495.75
2023-04-28T18:35:03.074Z,96482.09
2023-04-28T18:37:30.063Z,96474.13
2023-04-28T18:39:57.117Z,96467.03
2023-04-28T18:42:23.802Z,96453.59
2023-04-28T18:44:59.139Z,96437.88
2023-04-28T18:47:25.883Z,96421.81
2023-04-28T18:49:52.621Z,96411.09
2023-04-28T18:52:19.053Z,96402.84
2023-04-28T18:54:45.597Z,96396.38
2023-04-28T18:57:12.752Z,96395.94
2023-04-28T18:59:39.430Z,96399.59
2023-04-28T19:02:05.861Z,96399.16
2023-04-28T19:04:32.321Z,96391.41
2023-04-28T19:06:58.841Z,96391.50
2023-04-28T19:09:25.409Z,96383.53
2023-04-28T19:11:51.913Z,96382.03
2023-04-28T19:14:18.349Z,96383.81
2023-04-28T19:16:44.805Z,96375.41
2023-04-28T19:19:11.251Z,96380.78
2023-04-28T19:21:41.608Z,96379.53
2023-04-28T19:24:08.014Z,96385.00
2023-04-28T19:26:35.195Z,96367.44
2023-04-28T19:29:02.188Z,96358.44
2023-04-28T19:31:28.695Z,96346.22
2023-04-28T19:33:55.182Z,96325.84
2023-04-28T19:36:22.468Z,96272.50
2023-04-28T19:38:48.970Z,96246.91
2023-04-28T19:41:15.373Z,96235.13
2023-04-28T19:43:41.848Z,96221.88
2023-04-28T19:46:08.988Z,96216.94
2023-04-28T19:48:35.395Z,96210.56
2023-04-28T19:51:02.121Z,96206.81
2023-04-28T19:53:28.900Z,96192.97
2023-04-28T19:55:57.221Z,96183.22
2023-04-28T19:58:23.979Z,96146.22
2023-04-28T20:00:50.851Z,96115.44
2023-04-28T20:03:17.599Z,96095.59
2023-04-28T20:05:44.537Z,96059.66
2023-04-28T20:08:12.566Z,96042.91
2023-04-28T20:10:39.013Z,96015.13
2023-04-28T20:13:07.267Z,96003.69
2023-04-28T20:15:34.022Z,95999.75
2023-04-28T20:18:01.803Z,96000.66
2023-04-28T20:20:28.795Z,95984.28
2023-04-28T20:22:55.281Z,95969.06
2023-04-28T20:25:22.812Z,95956.13
2023-04-28T20:27:49.570Z,95931.59
2023-04-28T20:30:15.981Z,95931.25
2023-04-28T20:32:42.476Z,95921.66
2023-04-28T20:35:09.161Z,95897.56
2023-04-28T20:37:35.573Z,95921.78
2023-04-28T20:40:02.007Z,95917.66
2023-04-28T20:42:28.913Z,95920.28
2023-04-28T20:44:55.326Z,95935.03
2023-04-28T20:47:21.778Z,95929.63
2023-04-28T20:49:48.359Z,95917.19
2023-04-28T20:52:14.797Z,95926.53
2023-04-28T20:54:46.416Z,95934.03
2023-04-28T20:57:12.819Z,95955.25
2023-04-28T20:59:39.269Z,95975.94
2023-04-28T21:02:05.853Z,95994.59
2023-04-28T21:04:32.928Z,95992.53
2023-04-28T21:06:59.380Z,95995.41
2023-04-28T21:09:27.141Z,95991.16
2023-04-28T21:11:54.968Z,95993.47
2023-04-28T21:14:22.206Z,96008.66
2023-04-28T21:16:48.733Z,95999.81
2023-04-28T21:19:15.174Z,96006.75
2023-04-28T21:21:41.956Z,96000.53
2023-04-28T21:24:09.309Z,96010.25
2023-04-28T21:26:36.619Z,96003.22
2023-04-28T21:29:03.236Z,96025.28
2023-04-28T21:31:30.746Z,96023.88
2023-04-28T21:33:57.606Z,96060.22
2023-04-28T21:36:25.846Z,96060.22
2023-04-28T21:38:52.288Z,96077.06
2023-04-28T21:41:18.713Z,96067.81
2023-04-28T21:43:45.068Z,96064.50
2023-04-28T21:46:12.499Z,96066.69
2023-04-28T21:48:39.094Z,96075.59
2023-04-28T21:51:05.583Z,96077.63
2023-04-28T21:53:32.035Z,96065.91
2023-04-28T21:55:58.674Z,96068.66
2023-04-28T21:58:25.137Z,96082.38
2023-04-28T22:00:51.900Z,96090.63
2023-04-28T22:03:19.125Z,96080.44
2023-04-28T22:05:45.649Z,96067.75
2023-04-28T22:08:12.898Z,96058.84
2023-04-28T22:10:39.457Z,96032.31
2023-04-28T22:13:06.635Z,96009.81
2023-04-28T22:15:34.928Z,95976.09
2023-04-28T22:18:01.598Z,95996.91
2023-04-28T22:20:28.098Z,95978.22
2023-04-28T22:22:54.562Z,95996.66
2023-04-28T22:25:21.318Z,95981.00
2023-04-28T22:27:47.815Z,95974.28
2023-04-28T22:30:14.367Z,95968.06
2023-04-28T22:32:44.618Z,95973.03
2023-04-28T22:35:14.304Z,95973.03
2023-04-28T22:37:40.739Z,95976.72
2023-04-28T22:40:08.520Z,95980.75
2023-04-28T22:42:41.601Z,95991.94
2023-04-28T22:45:10.031Z,95995.41
2023-04-28T22:47:37.479Z,96011.97
2023-04-28T22:50:05.940Z,96008.06
2023-04-28T22:52:33.218Z,96031.59
2023-04-28T22:54:59.719Z,96038.97
2023-04-28T22:57:26.291Z,96046.69
2023-04-28T22:59:52.948Z,96064.44
2023-04-28T23:02:20.072Z,96080.31
2023-04-28T23:04:46.656Z,96099.22
2023-04-28T23:07:13.195Z,96129.19
2023-04-28T23:09:40.386Z,96150.09
2023-04-28T23:12:07.736Z,96145.84
2023-04-28T23:14:34.207Z,96157.63
2023-04-28T23:17:00.908Z,96146.06
2023-04-28T23:19:27.292Z,96134.94
2023-04-28T23:21:54.970Z,96107.09
2023-04-28T23:24:21.405Z,96102.25
2023-04-28T23:26:47.773Z,96095.59
2023-04-28T23:29:14.257Z,96073.22
2023-04-28T23:31:40.691Z,96051.16
2023-04-28T23:34:07.107Z,96063.78
2023-04-28T23:36:33.453Z,96053.13
2023-04-28T23:39:00.026Z,96067.06
2023-04-28T23:41:28.085Z,96064.19
2023-04-28T23:43:54.692Z,96084.41
2023-04-28T23:46:21.462Z,96102.09
2023-04-28T23:48:49.798Z,96115.66
2023-04-28T23:51:16.463Z,96144.66
2023-04-28T23:53:43.125Z,96157.91
2023-04-28T23:56:09.573Z,96159.53
2023-04-28T23:58:35.946Z,96183.59
